Time;durP1;ratioP1;P1;durP2;ratioP2;P2;SDS_P1;SDS_P2;PMS_P1;PMS_P2;Temp;Humidity;BMP_temperature;BMP_pressure;BME280_temperature;BME280_humidity;BME280_pressure;Samples;Min_cycle;Max_cycle;Signal;HPM_P1;HPM_P2
2021/12/10 00:00:38;;;;;;;22.82;13.30;;;3.10;99.90;;;;;;4952229;28;10001399;-77
2021/12/10 00:03:07;;;;;;;24.38;14.52;;;3.20;99.90;;;;;;5077234;28;20245;-77
2021/12/10 00:05:41;;;;;;;24.85;14.23;;;3.10;99.90;;;;;;5071443;28;20033;-77
2021/12/10 00:08:08;;;;;;;22.08;13.60;;;3.10;99.90;;;;;;5095049;28;20032;-77
2021/12/10 00:10:41;;;;;;;22.83;13.88;;;3.10;99.90;;;;;;5087136;28;20089;-77
2021/12/10 00:13:08;;;;;;;19.95;9.63;;;3.10;99.90;;;;;;5084274;28;20035;-77
2021/12/10 00:15:36;;;;;;;19.02;11.70;;;3.10;99.90;;;;;;5081366;28;20481;-77
2021/12/10 00:18:05;;;;;;;15.23;10.10;;;3.10;99.90;;;;;;5074126;28;20016;-77
2021/12/10 00:20:33;;;;;;;16.38;9.98;;;3.20;99.90;;;;;;5083602;28;20044;-77
2021/12/10 00:23:03;;;;;;;12.30;8.75;;;3.20;99.90;;;;;;5101109;28;20024;-77
2021/12/10 00:25:36;;;;;;;13.27;9.25;;;3.20;99.90;;;;;;5108770;28;20084;-78
2021/12/10 00:28:14;;;;;;;13.63;9.20;;;3.30;99.90;;;;;;5106519;28;20111;-77
2021/12/10 00:30:56;;;;;;;13.90;9.10;;;3.30;99.90;;;;;;5077837;28;20031;-77
2021/12/10 00:33:24;;;;;;;15.85;10.30;;;3.30;99.90;;;;;;5083965;28;20516;-77
2021/12/10 00:35:52;;;;;;;13.93;9.65;;;3.40;99.90;;;;;;5098449;28;20031;-77
2021/12/10 00:38:18;;;;;;;15.75;10.07;;;3.40;99.90;;;;;;5109007;28;20251;-77
2021/12/10 00:40:44;;;;;;;15.07;10.20;;;3.30;99.90;;;;;;5104578;28;20034;-78
2021/12/10 00:43:10;;;;;;;15.75;10.15;;;3.40;99.90;;;;;;5088767;28;20032;-77
2021/12/10 00:45:36;;;;;;;14.27;10.13;;;3.30;99.90;;;;;;5096170;28;20031;-77
2021/12/10 00:48:02;;;;;;;18.50;11.15;;;3.30;99.90;;;;;;5107045;28;20055;-77
2021/12/10 00:50:35;;;;;;;16.40;10.90;;;3.30;99.90;;;;;;5095132;28;20085;-77
2021/12/10 00:53:01;;;;;;;15.57;10.98;;;3.30;99.90;;;;;;5104822;28;20031;-77
2021/12/10 00:55:26;;;;;;;18.83;11.25;;;3.30;99.90;;;;;;5094403;28;20054;-77
2021/12/10 00:57:54;;;;;;;16.55;11.02;;;3.30;99.90;;;;;;5093130;28;20016;-77
2021/12/10 01:00:25;;;;;;;17.60;11.32;;;3.30;99.90;;;;;;5095205;28;20039;-77
2021/12/10 01:02:51;;;;;;;17.67;11.52;;;3.30;99.90;;;;;;5105712;28;20028;-77
2021/12/10 01:05:19;;;;;;;16.30;10.80;;;3.30;99.90;;;;;;5102113;28;20097;-77
2021/12/10 01:07:45;;;;;;;16.90;10.88;;;3.30;99.90;;;;;;5095369;28;20024;-77
2021/12/10 01:10:21;;;;;;;16.75;11.90;;;3.30;99.90;;;;;;5099290;28;20115;-77
2021/12/10 01:12:49;;;;;;;18.48;10.77;;;3.30;99.90;;;;;;5098815;28;20020;-77
2021/12/10 01:23:56;;;;;;;19.27;11.82;;;3.30;99.90;;;;;;5095389;28;20389;-76
2021/12/10 01:29:14;;;;;;;18.52;11.52;;;3.30;99.90;;;;;;5095691;28;20028;-77
2021/12/10 01:31:41;;;;;;;15.82;11.18;;;3.30;99.90;;;;;;5108310;28;20382;-77
2021/12/10 01:34:09;;;;;;;17.17;12.07;;;3.30;99.90;;;;;;5106280;28;20051;-77
2021/12/10 01:36:35;;;;;;;15.57;10.93;;;3.30;99.90;;;;;;5097470;28;20042;-76
2021/12/10 01:39:07;;;;;;;18.55;11.57;;;3.30;99.90;;;;;;5097368;28;20039;-76
2021/12/10 01:41:37;;;;;;;15.32;10.80;;;3.30;99.90;;;;;;5104937;28;20031;-77
2021/12/10 01:44:14;;;;;;;16.30;11.13;;;3.30;99.90;;;;;;5109888;28;20154;-77
2021/12/10 01:46:40;;;;;;;18.73;11.80;;;3.30;99.90;;;;;;5111965;28;20030;-76
2021/12/10 01:49:07;;;;;;;18.90;11.77;;;3.30;99.90;;;;;;5109919;28;20032;-77
2021/12/10 01:51:37;;;;;;;22.38;12.55;;;3.30;99.90;;;;;;5109593;28;20028;-77
2021/12/10 01:54:10;;;;;;;17.48;12.23;;;3.30;99.90;;;;;;5102705;28;20526;-77
2021/12/10 01:56:37;;;;;;;16.70;12.52;;;3.30;99.90;;;;;;5098037;28;20035;-77
2021/12/10 01:59:06;;;;;;;15.40;11.52;;;3.30;99.90;;;;;;5106186;28;20047;-77
2021/12/10 02:01:38;;;;;;;17.60;11.65;;;3.30;99.90;;;;;;5097483;28;20027;-77
2021/12/10 02:04:06;;;;;;;19.05;12.00;;;3.20;99.90;;;;;;5104533;28;20038;-76
2021/12/10 02:06:32;;;;;;;17.73;10.90;;;3.20;99.90;;;;;;5092070;28;20036;-77
2021/12/10 02:08:57;;;;;;;18.83;11.40;;;3.20;99.90;;;;;;5098798;28;20047;-77
2021/12/10 02:11:23;;;;;;;17.02;12.10;;;3.20;99.90;;;;;;5104298;28;20478;-77
2021/12/10 02:13:49;;;;;;;16.85;12.90;;;3.20;99.90;;;;;;5100611;28;20024;-77
2021/12/10 02:16:15;;;;;;;15.77;11.93;;;3.20;99.90;;;;;;5100176;28;20032;-77
2021/12/10 02:18:41;;;;;;;19.58;13.10;;;3.10;99.90;;;;;;5101271;27;20028;-77
2021/12/10 02:21:10;;;;;;;17.40;12.40;;;3.10;99.90;;;;;;5101528;28;20489;-77
2021/12/10 02:23:55;;;;;;;20.65;13.43;;;3.10;99.90;;;;;;5099433;28;20031;-77
2021/12/10 02:26:22;;;;;;;16.58;12.50;;;3.10;99.90;;;;;;5091842;28;20032;-76
2021/12/10 02:28:48;;;;;;;20.23;13.68;;;3.10;99.90;;;;;;5109393;28;20031;-77
2021/12/10 02:31:14;;;;;;;18.42;12.80;;;3.10;99.90;;;;;;5097569;28;20027;-77
2021/12/10 02:33:41;;;;;;;23.05;12.77;;;3.10;99.90;;;;;;5102084;27;20055;-77
2021/12/10 02:36:11;;;;;;;18.15;12.85;;;3.10;99.90;;;;;;5102215;27;20027;-77
2021/12/10 02:38:43;;;;;;;18.58;12.52;;;3.10;99.90;;;;;;5099459;28;20417;-77
2021/12/10 02:41:09;;;;;;;19.75;12.07;;;3.10;99.90;;;;;;5099822;27;20134;-77
2021/12/10 02:43:35;;;;;;;19.20;12.88;;;3.20;99.90;;;;;;5094112;27;20176;-77
2021/12/10 02:46:02;;;;;;;17.08;12.70;;;3.20;99.90;;;;;;5100328;27;20490;-77
2021/12/10 02:48:28;;;;;;;19.40;13.50;;;3.10;99.90;;;;;;5097015;28;20027;-77
2021/12/10 02:50:56;;;;;;;18.83;13.50;;;3.10;99.90;;;;;;5090661;28;20031;-77
2021/12/10 02:53:27;;;;;;;17.67;13.23;;;3.10;99.90;;;;;;5089897;28;20032;-77
2021/12/10 02:55:57;;;;;;;18.10;12.98;;;3.10;99.90;;;;;;5098020;27;20116;-77
2021/12/10 02:58:24;;;;;;;19.17;12.68;;;3.10;99.90;;;;;;5092576;27;20556;-77
2021/12/10 03:00:55;;;;;;;16.38;11.75;;;3.10;99.90;;;;;;5093536;28;20038;-77
2021/12/10 03:03:21;;;;;;;18.67;12.73;;;3.10;99.90;;;;;;5090358;27;20039;-77
2021/12/10 03:05:48;;;;;;;19.20;13.05;;;3.10;99.90;;;;;;5090213;27;20646;-77
2021/12/10 03:08:14;;;;;;;20.75;12.65;;;3.10;99.90;;;;;;5092172;28;20279;-77
2021/12/10 03:10:40;;;;;;;17.83;12.55;;;3.10;99.90;;;;;;5089335;27;20028;-77
2021/12/10 03:13:07;;;;;;;22.23;13.30;;;3.10;99.90;;;;;;5096144;28;20016;-77
2021/12/10 03:15:34;;;;;;;17.45;12.60;;;3.10;99.90;;;;;;5103283;27;20027;-77
2021/12/10 03:18:03;;;;;;;15.93;11.75;;;3.10;99.90;;;;;;5103080;27;20035;-77
2021/12/10 03:20:30;;;;;;;16.85;11.48;;;3.10;99.90;;;;;;5097950;28;20031;-77
2021/12/10 03:22:58;;;;;;;18.15;12.52;;;3.10;99.90;;;;;;5096232;28;20573;-78
2021/12/10 03:25:24;;;;;;;16.50;11.50;;;3.10;99.90;;;;;;5099741;27;20062;-77
2021/12/10 03:27:50;;;;;;;16.77;11.45;;;3.10;99.90;;;;;;5098563;27;20054;-77
2021/12/10 03:30:20;;;;;;;19.23;12.57;;;3.10;99.90;;;;;;5096979;27;20104;-77
2021/12/10 03:32:47;;;;;;;17.92;12.05;;;3.10;99.90;;;;;;5093486;27;20027;-77
2021/12/10 03:35:29;;;;;;;17.48;11.95;;;3.20;99.90;;;;;;5096045;27;20374;-77
2021/12/10 03:37:58;;;;;;;17.33;12.23;;;3.20;99.90;;;;;;5099975;27;20027;-77
2021/12/10 03:40:24;;;;;;;20.58;13.18;;;3.20;99.90;;;;;;5105327;28;20050;-77
2021/12/10 03:42:58;;;;;;;19.65;13.70;;;3.20;99.90;;;;;;5102456;27;20388;-77
2021/12/10 03:45:35;;;;;;;19.63;13.70;;;3.20;99.90;;;;;;5107349;28;20031;-77
2021/12/10 03:48:07;;;;;;;20.33;14.65;;;3.20;99.90;;;;;;5109097;28;20028;-77
2021/12/10 03:50:32;;;;;;;20.73;15.07;;;3.20;99.90;;;;;;5105182;27;20043;-77
2021/12/10 03:53:00;;;;;;;24.38;16.17;;;3.20;99.90;;;;;;5109307;27;20616;-77
2021/12/10 03:55:27;;;;;;;23.05;15.60;;;3.20;99.90;;;;;;5104484;28;20035;-77
2021/12/10 03:57:54;;;;;;;24.20;16.50;;;3.20;99.90;;;;;;5109120;28;20053;-77
2021/12/10 04:00:24;;;;;;;24.17;17.15;;;3.20;99.90;;;;;;5109501;28;20389;-77
2021/12/10 04:02:50;;;;;;;25.83;17.08;;;3.20;99.90;;;;;;5103280;28;20717;-77
2021/12/10 04:05:16;;;;;;;23.42;16.38;;;3.20;99.90;;;;;;5104582;27;20027;-77
2021/12/10 04:07:42;;;;;;;25.90;16.80;;;3.20;99.90;;;;;;5102609;28;20028;-77
2021/12/10 04:10:11;;;;;;;26.77;17.17;;;3.20;99.90;;;;;;5108912;28;20118;-77
2021/12/10 04:12:37;;;;;;;27.75;16.60;;;3.20;99.90;;;;;;5095648;28;20042;-77
2021/12/10 04:15:05;;;;;;;27.52;18.17;;;3.20;99.90;;;;;;5095737;28;20027;-77
2021/12/10 04:17:31;;;;;;;29.88;18.10;;;3.10;99.90;;;;;;5098570;28;20054;-77
2021/12/10 04:19:57;;;;;;;28.20;18.13;;;3.20;99.90;;;;;;5100764;28;20107;-78
2021/12/10 04:22:32;;;;;;;29.67;17.42;;;3.20;99.90;;;;;;5103366;28;20047;-77
2021/12/10 04:24:59;;;;;;;24.98;16.85;;;3.10;99.90;;;;;;5103419;28;20036;-77
2021/12/10 04:27:24;;;;;;;26.15;15.25;;;3.10;99.90;;;;;;5096234;27;20020;-77
2021/12/10 04:29:52;;;;;;;22.63;15.10;;;3.10;99.90;;;;;;5099919;28;20492;-77
2021/12/10 04:32:18;;;;;;;22.58;14.30;;;3.10;99.90;;;;;;5094996;28;20059;-77
2021/12/10 04:34:44;;;;;;;21.83;13.45;;;3.10;99.90;;;;;;5094065;28;20067;-77
2021/12/10 04:37:11;;;;;;;21.23;14.13;;;3.10;99.90;;;;;;5102015;27;20035;-78
2021/12/10 04:39:44;;;;;;;23.88;14.38;;;3.20;99.90;;;;;;5103459;28;20058;-77
2021/12/10 04:42:09;;;;;;;20.42;14.15;;;3.20;99.90;;;;;;5096471;28;20039;-77
2021/12/10 04:44:35;;;;;;;20.02;14.20;;;3.20;99.90;;;;;;5094297;28;20032;-77
2021/12/10 04:47:01;;;;;;;23.40;15.02;;;3.20;99.90;;;;;;5099986;28;20027;-77
2021/12/10 04:49:27;;;;;;;24.35;14.88;;;3.20;99.90;;;;;;5100790;28;20047;-77
2021/12/10 04:51:54;;;;;;;22.38;15.30;;;3.10;99.90;;;;;;5100102;28;20473;-77
2021/12/10 04:54:22;;;;;;;24.17;15.52;;;3.10;99.90;;;;;;5100811;28;20032;-78
2021/12/10 04:56:49;;;;;;;22.17;15.13;;;3.10;99.90;;;;;;5097155;28;20060;-77
2021/12/10 04:59:17;;;;;;;24.80;15.73;;;3.10;99.90;;;;;;5086345;28;20421;-77
2021/12/10 05:01:44;;;;;;;24.67;16.30;;;3.10;99.90;;;;;;5099190;28;20486;-77
2021/12/10 05:04:11;;;;;;;25.42;16.50;;;3.10;99.90;;;;;;5091255;28;20028;-77
2021/12/10 05:06:38;;;;;;;23.17;14.73;;;3.10;99.90;;;;;;5099967;28;20570;-77
2021/12/10 05:09:07;;;;;;;21.00;15.25;;;3.10;99.90;;;;;;5097711;28;20405;-77
2021/12/10 05:11:33;;;;;;;21.20;14.35;;;3.10;99.90;;;;;;5091633;28;20070;-77
2021/12/10 05:14:00;;;;;;;19.80;12.80;;;3.10;99.90;;;;;;5082893;28;20028;-77
2021/12/10 05:16:27;;;;;;;16.92;11.60;;;3.10;99.90;;;;;;5095626;28;20062;-77
2021/12/10 05:18:59;;;;;;;16.45;10.65;;;3.00;99.90;;;;;;5098761;27;20526;-77
2021/12/10 05:21:29;;;;;;;13.57;9.77;;;3.10;99.90;;;;;;5093503;28;20490;-77
2021/12/10 05:23:55;;;;;;;16.90;10.60;;;3.10;99.90;;;;;;5108774;27;20035;-77
2021/12/10 05:26:21;;;;;;;15.98;11.05;;;3.10;99.90;;;;;;5111780;27;20127;-77
2021/12/10 05:28:47;;;;;;;20.08;11.60;;;3.10;99.90;;;;;;5100604;28;20461;-77
2021/12/10 05:31:13;;;;;;;20.92;12.25;;;3.10;99.90;;;;;;5110883;28;20036;-77
2021/12/10 05:33:39;;;;;;;18.88;12.07;;;3.00;99.90;;;;;;5110752;28;20148;-77
2021/12/10 05:36:05;;;;;;;20.00;11.85;;;3.00;99.90;;;;;;5091707;28;20430;-77
2021/12/10 05:38:32;;;;;;;22.27;10.52;;;3.10;99.90;;;;;;5085278;28;20042;-77
2021/12/10 05:40:59;;;;;;;15.65;10.88;;;3.10;99.90;;;;;;5085795;28;20118;-77
2021/12/10 05:43:25;;;;;;;16.65;11.15;;;3.10;99.90;;;;;;5073852;28;20043;-77
2021/12/10 05:45:52;;;;;;;17.40;10.35;;;3.10;99.90;;;;;;5091620;28;20090;-77
2021/12/10 05:48:19;;;;;;;16.92;10.18;;;3.10;99.90;;;;;;5069764;28;20031;-77
2021/12/10 05:50:46;;;;;;;14.10;9.90;;;3.10;99.90;;;;;;5076011;28;20482;-77
2021/12/10 05:53:12;;;;;;;15.35;9.43;;;3.20;99.90;;;;;;5082634;28;20478;-78
2021/12/10 05:55:40;;;;;;;13.95;9.65;;;3.20;99.90;;;;;;5075170;28;20106;-77
2021/12/10 05:58:07;;;;;;;18.38;9.35;;;3.10;99.90;;;;;;5072101;28;20111;-77
2021/12/10 06:00:38;;;;;;;16.02;8.85;;;3.20;99.90;;;;;;5088085;28;20501;-77
2021/12/10 06:03:05;;;;;;;15.65;8.75;;;3.20;99.90;;;;;;5080887;28;20029;-77
2021/12/10 06:05:33;;;;;;;16.67;8.25;;;3.10;99.90;;;;;;5084659;28;20093;-76
2021/12/10 06:07:59;;;;;;;17.80;8.10;;;3.20;99.90;;;;;;5078677;28;20724;-77
2021/12/10 06:10:24;;;;;;;14.23;7.10;;;3.20;99.90;;;;;;5089082;28;20028;-77
2021/12/10 06:12:51;;;;;;;13.70;6.40;;;3.10;99.90;;;;;;5082059;28;20362;-77
2021/12/10 06:15:19;;;;;;;11.10;6.53;;;3.20;99.90;;;;;;5087013;28;20040;-77
2021/12/10 06:17:46;;;;;;;12.23;6.00;;;3.20;99.90;;;;;;5085099;28;20063;-77
2021/12/10 06:20:14;;;;;;;11.88;6.10;;;3.10;99.90;;;;;;5071837;28;20052;-76
2021/12/10 06:22:40;;;;;;;14.88;6.60;;;3.10;99.90;;;;;;5082387;28;20166;-77
2021/12/10 06:25:07;;;;;;;9.45;6.18;;;3.10;99.90;;;;;;4729290;28;10000195;-75
2021/12/10 06:27:33;;;;;;;9.50;5.97;;;3.20;99.90;;;;;;5073298;28;20047;-76
2021/12/10 06:30:00;;;;;;;10.35;5.72;;;3.10;99.90;;;;;;5077829;28;20059;-78
2021/12/10 06:32:26;;;;;;;11.60;5.82;;;3.20;99.90;;;;;;5086050;28;20538;-76
2021/12/10 06:34:52;;;;;;;11.25;5.85;;;3.20;99.90;;;;;;5098053;27;20595;-77
2021/12/10 06:37:18;;;;;;;7.50;5.28;;;3.10;99.90;;;;;;5106799;27;20047;-77
2021/12/10 06:39:44;;;;;;;15.15;6.53;;;3.00;99.90;;;;;;5093807;27;20035;-77
2021/12/10 06:42:10;;;;;;;12.65;5.82;;;3.00;99.90;;;;;;5090233;28;20122;-77
2021/12/10 06:44:36;;;;;;;12.48;6.10;;;3.10;99.90;;;;;;5101381;27;20028;-77
2021/12/10 06:47:05;;;;;;;14.20;6.28;;;3.10;99.90;;;;;;5098200;27;20496;-77
2021/12/10 06:49:32;;;;;;;12.00;5.90;;;3.10;99.90;;;;;;5104933;27;20469;-77
2021/12/10 06:52:00;;;;;;;13.02;7.00;;;3.10;99.90;;;;;;5108494;27;20066;-77
2021/12/10 06:54:27;;;;;;;14.00;7.60;;;3.10;99.90;;;;;;5098124;28;20161;-77
2021/12/10 06:56:53;;;;;;;15.75;7.30;;;3.10;99.90;;;;;;5109604;27;20031;-77
2021/12/10 06:59:19;;;;;;;13.57;7.05;;;3.10;99.90;;;;;;5106103;28;20485;-77
2021/12/10 07:01:44;;;;;;;12.63;6.30;;;3.00;99.90;;;;;;5106753;28;20035;-77
2021/12/10 07:04:12;;;;;;;10.68;6.00;;;3.00;99.90;;;;;;5105642;27;20027;-77
2021/12/10 07:06:41;;;;;;;15.07;5.97;;;3.00;99.90;;;;;;5100418;28;20437;-77
2021/12/10 07:09:20;;;;;;;8.80;5.18;;;3.10;99.90;;;;;;5096502;28;20028;-77
2021/12/10 07:11:47;;;;;;;13.50;6.18;;;3.10;99.90;;;;;;5101240;28;20028;-78
2021/12/10 07:14:12;;;;;;;18.90;6.55;;;3.10;99.90;;;;;;5094200;27;20617;-77
2021/12/10 07:16:38;;;;;;;12.27;5.82;;;3.10;99.90;;;;;;5105364;27;20488;-77
2021/12/10 07:19:06;;;;;;;14.10;6.28;;;3.10;99.90;;;;;;5107068;28;20031;-77
2021/12/10 07:21:33;;;;;;;10.70;5.95;;;3.10;99.90;;;;;;5103528;28;20500;-77
2021/12/10 07:24:05;;;;;;;8.95;5.53;;;3.00;99.90;;;;;;5103450;28;20036;-77
2021/12/10 07:26:31;;;;;;;15.38;6.55;;;3.00;99.90;;;;;;5105895;28;20838;-77
2021/12/10 07:28:58;;;;;;;13.63;6.35;;;3.00;99.90;;;;;;5101239;28;20032;-77
2021/12/10 07:31:24;;;;;;;12.68;6.68;;;3.10;99.90;;;;;;5101208;27;20032;-77
2021/12/10 07:33:50;;;;;;;14.30;6.82;;;3.10;99.90;;;;;;5099076;27;20056;-77
2021/12/10 07:36:16;;;;;;;14.10;6.88;;;3.10;99.90;;;;;;5099525;28;20145;-77
2021/12/10 07:38:44;;;;;;;12.10;6.38;;;3.10;99.90;;;;;;5100625;27;20069;-77
2021/12/10 07:41:10;;;;;;;9.88;6.25;;;3.00;99.90;;;;;;5100193;28;20123;-77
2021/12/10 07:43:37;;;;;;;9.25;6.13;;;3.10;99.90;;;;;;5106527;28;20468;-77
2021/12/10 07:46:04;;;;;;;11.15;6.13;;;3.10;99.90;;;;;;5103367;27;20116;-77
2021/12/10 07:48:34;;;;;;;8.73;5.85;;;3.10;99.90;;;;;;5102739;28;20063;-77
2021/12/10 07:51:04;;;;;;;11.85;6.20;;;3.10;99.90;;;;;;5106123;27;20447;-77
2021/12/10 07:53:32;;;;;;;10.18;6.00;;;3.20;99.90;;;;;;5100708;27;20039;-77
2021/12/10 07:56:01;;;;;;;11.52;5.80;;;3.20;99.90;;;;;;5099559;28;20040;-77
2021/12/10 07:58:27;;;;;;;11.95;6.28;;;3.20;99.90;;;;;;5100069;27;20088;-77
2021/12/10 08:00:54;;;;;;;10.43;5.13;;;3.20;99.90;;;;;;5102817;28;20028;-77
2021/12/10 08:03:20;;;;;;;9.77;5.63;;;3.20;99.90;;;;;;5102659;27;20055;-78
2021/12/10 08:05:47;;;;;;;9.95;5.60;;;3.30;99.90;;;;;;5100958;27;20031;-77
2021/12/10 08:08:13;;;;;;;9.38;5.03;;;3.30;99.90;;;;;;5098923;27;20036;-77
2021/12/10 08:10:41;;;;;;;9.20;4.70;;;3.40;99.90;;;;;;5094460;28;20050;-77
2021/12/10 08:13:07;;;;;;;9.85;5.22;;;3.40;99.90;;;;;;5100630;28;20027;-77
2021/12/10 08:15:34;;;;;;;7.72;4.43;;;3.40;99.90;;;;;;5100302;27;21123;-77
2021/12/10 08:18:00;;;;;;;8.65;5.05;;;3.40;99.90;;;;;;5107350;28;20085;-77
2021/12/10 08:20:28;;;;;;;9.75;4.15;;;3.40;99.90;;;;;;5103701;28;20043;-77
2021/12/10 08:22:54;;;;;;;10.05;4.40;;;3.40;99.90;;;;;;5102348;27;20088;-77
2021/12/10 08:25:22;;;;;;;9.23;4.53;;;3.40;99.90;;;;;;5100280;28;20036;-77
2021/12/10 08:27:50;;;;;;;7.43;4.28;;;3.30;99.90;;;;;;5100514;27;20091;-76
2021/12/10 08:30:20;;;;;;;11.95;4.97;;;3.30;99.90;;;;;;5097475;28;20066;-77
2021/12/10 08:32:47;;;;;;;7.13;4.50;;;3.30;99.90;;;;;;5100959;28;20402;-77
2021/12/10 08:35:19;;;;;;;8.23;4.68;;;3.30;99.90;;;;;;5074858;28;20040;-77
2021/12/10 08:37:46;;;;;;;9.40;4.82;;;3.20;99.90;;;;;;5089267;28;20507;-77
2021/12/10 08:40:22;;;;;;;11.60;5.32;;;3.20;99.90;;;;;;5097373;28;20039;-77
2021/12/10 08:42:49;;;;;;;9.25;4.57;;;3.20;99.90;;;;;;5082815;28;20043;-77
2021/12/10 08:45:15;;;;;;;12.15;5.40;;;3.20;99.90;;;;;;5081952;28;20025;-77
2021/12/10 08:47:41;;;;;;;9.00;4.20;;;3.30;99.90;;;;;;5081436;28;20031;-77
2021/12/10 08:50:08;;;;;;;8.32;4.10;;;3.40;99.90;;;;;;5078683;28;21559;-77
2021/12/10 08:52:34;;;;;;;10.63;5.40;;;3.40;99.90;;;;;;5090056;28;20111;-76
2021/12/10 08:55:00;;;;;;;12.27;4.80;;;3.40;99.90;;;;;;5083854;28;20031;-76
2021/12/10 08:57:26;;;;;;;7.88;3.88;;;3.50;99.90;;;;;;5081600;28;20543;-76
2021/12/10 08:59:53;;;;;;;7.35;3.88;;;3.50;99.90;;;;;;5084588;28;20024;-76
2021/12/10 09:02:19;;;;;;;10.45;4.22;;;3.60;99.90;;;;;;5077598;28;20029;-75
2021/12/10 09:04:45;;;;;;;8.63;3.55;;;3.60;99.90;;;;;;5085961;28;20415;-75
2021/12/10 09:07:13;;;;;;;7.70;3.45;;;3.70;99.90;;;;;;5081131;28;20032;-75
2021/12/10 09:09:42;;;;;;;10.13;3.90;;;3.70;99.90;;;;;;5089246;28;20115;-74
2021/12/10 09:12:12;;;;;;;12.32;4.60;;;;;;;;;;5093669;28;20031;-75
2021/12/10 09:14:43;;;;;;;8.18;3.65;;;;;;;;;;5088903;28;20023;-74
2021/12/10 09:17:12;;;;;;;8.02;3.78;;;3.90;99.90;;;;;;5083317;28;20475;-77
2021/12/10 09:19:40;;;;;;;8.88;4.00;;;4.00;99.90;;;;;;5084925;28;20051;-76
2021/12/10 09:22:08;;;;;;;8.63;3.78;;;4.00;99.90;;;;;;5067495;28;20436;-73
2021/12/10 09:24:35;;;;;;;14.90;4.10;;;4.00;99.90;;;;;;5092757;28;20385;-77
2021/12/10 09:27:01;;;;;;;8.73;4.32;;;4.00;99.90;;;;;;5084314;28;20032;-77
2021/12/10 09:29:31;;;;;;;6.90;3.38;;;4.10;99.90;;;;;;5091981;28;20108;-77
2021/12/10 09:31:58;;;;;;;7.03;3.67;;;4.10;99.90;;;;;;5085668;28;20153;-75
2021/12/10 09:34:24;;;;;;;9.85;4.05;;;4.10;99.90;;;;;;5083225;28;20043;-75
2021/12/10 09:36:51;;;;;;;5.82;3.80;;;4.10;99.90;;;;;;5081642;28;20021;-75
2021/12/10 09:39:18;;;;;;;7.32;3.72;;;4.10;99.90;;;;;;5080635;28;20204;-74
2021/12/10 09:41:46;;;;;;;9.68;3.70;;;4.10;99.90;;;;;;5088999;28;20540;-73
2021/12/10 09:44:12;;;;;;;9.60;4.10;;;4.20;99.90;;;;;;5083853;28;20056;-74
2021/12/10 09:46:39;;;;;;;7.22;4.35;;;4.30;99.90;;;;;;5078280;28;20028;-73
2021/12/10 09:49:08;;;;;;;8.05;4.10;;;4.40;99.90;;;;;;5081796;28;20024;-74
2021/12/10 09:51:38;;;;;;;10.13;4.15;;;4.30;99.90;;;;;;5090285;28;20044;-73
2021/12/10 09:54:11;;;;;;;9.63;4.63;;;4.30;99.90;;;;;;5083820;28;20138;-74
2021/12/10 09:56:39;;;;;;;11.05;4.20;;;4.30;99.90;;;;;;5087671;28;20031;-73
2021/12/10 09:59:05;;;;;;;8.45;4.57;;;4.20;99.90;;;;;;5085490;28;20146;-74
2021/12/10 10:01:42;;;;;;;9.35;4.65;;;4.10;99.90;;;;;;5080545;28;20059;-78
2021/12/10 10:04:10;;;;;;;12.25;5.20;;;4.10;99.90;;;;;;5080586;28;20027;-78
2021/12/10 10:06:45;;;;;;;7.80;4.40;;;4.10;99.90;;;;;;5079698;28;20092;-78
2021/12/10 10:09:14;;;;;;;5.85;4.05;;;4.10;99.90;;;;;;5078124;28;20028;-77
2021/12/10 10:11:42;;;;;;;7.88;4.07;;;4.10;99.90;;;;;;5088541;28;20071;-77
2021/12/10 10:14:08;;;;;;;8.95;3.50;;;4.20;99.90;;;;;;5086672;28;20696;-77
2021/12/10 10:16:35;;;;;;;10.25;4.05;;;4.20;99.90;;;;;;5097116;28;20118;-79
2021/12/10 10:19:02;;;;;;;7.57;3.63;;;4.30;99.90;;;;;;5093786;28;20494;-77
2021/12/10 10:21:34;;;;;;;6.47;4.13;;;4.40;99.90;;;;;;4736427;28;10000116;-77
2021/12/10 10:24:00;;;;;;;6.65;3.50;;;4.50;99.90;;;;;;5079055;28;20135;-73
2021/12/10 10:26:34;;;;;;;6.18;3.70;;;4.50;99.90;;;;;;5087042;28;20031;-73
2021/12/10 10:29:08;;;;;;;8.52;3.55;;;4.60;99.90;;;;;;5080998;28;20482;-74
2021/12/10 10:31:37;;;;;;;9.95;3.72;;;4.60;99.90;;;;;;5087745;28;20020;-74
2021/12/10 10:34:04;;;;;;;7.80;3.33;;;4.60;99.90;;;;;;5079878;28;20048;-74
2021/12/10 10:36:32;;;;;;;8.40;3.50;;;4.50;99.90;;;;;;5078087;28;20063;-74
2021/12/10 10:39:23;;;;;;;8.43;3.80;;;4.40;99.90;;;;;;5071862;28;20067;-74
2021/12/10 10:41:54;;;;;;;10.57;3.97;;;4.40;99.90;;;;;;5067919;28;20112;-74
2021/12/10 10:44:22;;;;;;;9.57;3.70;;;4.40;99.90;;;;;;5068029;28;20560;-74
2021/12/10 10:46:48;;;;;;;23.75;4.40;;;4.30;99.90;;;;;;5076722;28;20035;-74
2021/12/10 10:49:44;;;;;;;10.45;3.47;;;4.40;99.90;;;;;;5085442;28;20703;-79
2021/12/10 10:52:30;;;;;;;6.78;2.83;;;4.40;99.90;;;;;;5072773;28;20031;-79
2021/12/10 10:55:11;;;;;;;4.95;2.97;;;4.50;99.90;;;;;;5071249;28;20039;-78
2021/12/10 10:57:49;;;;;;;6.22;2.95;;;4.50;99.90;;;;;;5078230;28;20036;-79
2021/12/10 11:00:29;;;;;;;7.68;3.20;;;4.60;99.90;;;;;;5080673;28;20036;-78
2021/12/10 11:03:01;;;;;;;12.63;4.05;;;4.60;99.90;;;;;;5084184;28;20035;-78
2021/12/10 11:05:28;;;;;;;6.27;2.67;;;4.70;99.90;;;;;;5082448;28;20768;-78
2021/12/10 11:07:59;;;;;;;12.68;3.40;;;4.80;99.90;;;;;;5077427;28;20787;-78
2021/12/10 11:10:27;;;;;;;5.80;2.40;;;5.00;99.90;;;;;;5069893;28;20041;-78
2021/12/10 11:12:53;;;;;;;6.05;2.47;;;5.00;99.90;;;;;;5073629;28;20051;-78
2021/12/10 11:15:19;;;;;;;4.05;2.03;;;5.10;99.90;;;;;;5066803;28;20064;-79
2021/12/10 11:17:51;;;;;;;7.40;2.33;;;5.20;99.90;;;;;;5078160;28;20039;-78
2021/12/10 11:20:25;;;;;;;8.98;2.70;;;5.20;99.90;;;;;;5070691;28;20113;-78
2021/12/10 11:22:55;;;;;;;5.32;2.10;;;5.20;99.90;;;;;;5067279;28;20036;-78
2021/12/10 11:25:25;;;;;;;7.70;1.80;;;5.20;99.90;;;;;;5068965;28;20116;-78
2021/12/10 11:28:00;;;;;;;8.90;1.77;;;5.20;99.90;;;;;;5080481;28;20264;-76
2021/12/10 11:30:27;;;;;;;6.28;1.50;;;5.30;99.90;;;;;;5067562;28;20025;-78
2021/12/10 11:33:06;;;;;;;7.90;1.83;;;5.30;99.90;;;;;;5075927;28;20024;-82
2021/12/10 11:35:37;;;;;;;13.15;6.75;;;5.30;99.90;;;;;;5079304;28;20056;-77
2021/12/10 11:38:16;;;;;;;9.88;4.60;;;5.40;99.90;;;;;;5078917;28;20225;-74
2021/12/10 11:41:01;;;;;;;8.90;2.10;;;5.70;99.90;;;;;;5086976;28;20425;-90
2021/12/10 11:49:09;;;;;;;5.60;1.50;;;5.90;99.90;;;;;;5079407;28;20027;-75
2021/12/10 11:51:53;;;;;;;6.38;1.42;;;5.70;99.90;;;;;;5061557;28;20094;-77
2021/12/10 11:54:22;;;;;;;5.05;1.40;;;5.80;99.90;;;;;;5064371;28;20127;-73
2021/12/10 11:57:16;;;;;;;4.93;1.20;;;6.00;99.90;;;;;;5069575;28;20032;-78
2021/12/10 11:59:57;;;;;;;7.05;1.98;;;5.90;99.90;;;;;;5072548;28;20047;-70
2021/12/10 12:02:30;;;;;;;8.63;3.47;;;5.80;99.90;;;;;;5070591;28;20037;-70
2021/12/10 12:04:57;;;;;;;5.43;2.65;;;5.80;99.90;;;;;;5065723;28;20406;-71
2021/12/10 12:07:22;;;;;;;6.72;2.17;;;5.80;99.90;;;;;;5076679;28;20032;-71
2021/12/10 12:10:12;;;;;;;4.05;1.30;;;5.90;99.90;;;;;;5079386;28;20554;-72
2021/12/10 12:12:45;;;;;;;5.60;1.77;;;5.90;99.90;;;;;;5084711;28;20027;-71
2021/12/10 12:15:19;;;;;;;5.97;1.63;;;5.90;99.90;;;;;;5070359;28;20036;-71
2021/12/10 12:17:48;;;;;;;5.57;1.60;;;5.90;99.90;;;;;;5076285;28;20093;-71
2021/12/10 12:20:34;;;;;;;5.70;1.30;;;5.80;99.90;;;;;;5071547;28;20056;-72
2021/12/10 12:25:52;;;;;;;4.35;1.45;;;5.80;99.90;;;;;;5070668;28;20060;-72
2021/12/10 12:28:20;;;;;;;6.65;1.50;;;5.70;99.90;;;;;;5065752;28;20029;-72
2021/12/10 12:30:58;;;;;;;9.80;1.85;;;5.80;99.90;;;;;;5079556;28;20134;-72
2021/12/10 12:33:27;;;;;;;7.43;1.40;;;5.80;99.90;;;;;;5081713;28;20074;-71
2021/12/10 12:35:54;;;;;;;4.38;1.55;;;5.80;99.90;;;;;;5100172;28;20188;-73
2021/12/10 12:38:26;;;;;;;6.78;1.52;;;5.90;99.90;;;;;;5096635;28;20055;-73
2021/12/10 12:41:14;;;;;;;8.00;1.75;;;5.90;99.90;;;;;;5094469;27;20614;-73
2021/12/10 12:43:42;;;;;;;6.47;1.38;;;5.90;99.90;;;;;;5099162;28;20722;-72
2021/12/10 12:46:10;;;;;;;6.25;1.58;;;5.80;99.90;;;;;;5104491;28;20497;-73
2021/12/10 12:48:37;;;;;;;7.10;1.60;;;5.80;99.90;;;;;;5100954;28;20055;-74
2021/12/10 12:51:17;;;;;;;5.03;1.45;;;5.70;99.90;;;;;;5098093;28;20039;-72
2021/12/10 12:53:43;;;;;;;6.82;1.67;;;5.60;99.90;;;;;;5096778;28;20103;-73
2021/12/10 12:56:14;;;;;;;5.05;1.80;;;5.40;99.90;;;;;;5104723;28;20226;-74
2021/12/10 12:59:03;;;;;;;4.53;1.40;;;5.30;99.90;;;;;;5092572;28;20134;-73
2021/12/10 13:01:36;;;;;;;3.13;1.40;;;5.20;99.90;;;;;;5095354;28;20405;-73
2021/12/10 13:04:13;;;;;;;4.43;1.40;;;5.10;99.90;;;;;;5094222;28;20036;-71
2021/12/10 13:06:56;;;;;;;4.10;1.40;;;5.00;99.90;;;;;;5094354;28;20052;-74
2021/12/10 13:09:28;;;;;;;4.80;1.80;;;5.00;99.90;;;;;;5096895;28;20450;-75
2021/12/10 13:12:10;;;;;;;6.90;1.75;;;4.90;99.90;;;;;;5092653;28;20485;-74
2021/12/10 13:14:55;;;;;;;8.35;1.42;;;4.90;99.90;;;;;;5102331;28;20035;-74